Time;durP1;ratioP1;P1;durP2;ratioP2;P2;SDS_P1;SDS_P2;PMS_P1;PMS_P2;Temp;Humidity;BMP_temperature;BMP_pressure;BME280_temperature;BME280_humidity;BME280_pressure;Samples;Min_cycle;Max_cycle;Signal;HPM_P1;HPM_P2
2022/05/31 00:00:27;;;;;;;11.35;3.38;;;;;;;17.02;57.18;99830.84;5032412;28;20120;-52
2022/05/31 00:02:54;;;;;;;13.25;4.22;;;;;;;17.00;57.31;99820.44;5031480;28;20045;-51
2022/05/31 00:05:20;;;;;;;13.07;4.90;;;;;;;17.00;56.86;99823.06;5042427;28;20427;-53
2022/05/31 00:07:47;;;;;;;11.73;4.78;;;;;;;17.00;57.03;99823.06;5036205;28;20056;-50
2022/05/31 00:10:14;;;;;;;12.82;4.13;;;;;;;17.00;57.01;99827.47;5031863;28;20042;-53
2022/05/31 00:12:41;;;;;;;10.45;3.70;;;;;;;17.00;56.83;99827.47;5012554;28;20037;-49
2022/05/31 00:15:08;;;;;;;15.15;4.00;;;;;;;16.88;57.10;99805.38;5064456;28;20045;-52
2022/05/31 00:17:34;;;;;;;12.07;4.28;;;;;;;16.99;57.41;99826.63;5032967;28;20540;-50
2022/05/31 00:19:59;;;;;;;13.18;4.00;;;;;;;16.98;57.56;99824.91;5019809;28;20056;-52
2022/05/31 00:22:27;;;;;;;10.57;3.92;;;;;;;16.91;57.52;99816.53;5038896;28;20111;-50
2022/05/31 00:24:53;;;;;;;14.68;4.07;;;;;;;16.96;57.10;99815.47;5030112;28;20617;-51
2022/05/31 00:27:21;;;;;;;16.98;4.88;;;;;;;16.98;57.23;99824.06;5028393;28;20049;-50
2022/05/31 00:32:36;;;;;;;13.90;4.60;;;;;;;16.97;57.67;99822.38;5028559;28;20033;-52
2022/05/31 00:35:08;;;;;;;17.20;5.07;;;;;;;16.96;58.11;99824.16;5028682;28;20045;-52
2022/05/31 00:37:35;;;;;;;15.38;4.18;;;;;;;16.95;58.15;99825.13;5028866;28;20041;-51
2022/05/31 00:40:02;;;;;;;13.32;4.32;;;;;;;16.92;58.12;99834.00;5028114;28;20044;-50
2022/05/31 00:42:29;;;;;;;16.42;4.38;;;;;;;16.92;57.71;99830.53;5032440;28;20069;-49
2022/05/31 00:44:55;;;;;;;14.45;4.53;;;;;;;16.93;57.82;99830.44;5016604;28;20037;-51
2022/05/31 00:47:30;;;;;;;15.35;4.32;;;;;;;16.92;57.82;99841.88;5032509;28;20501;-51
2022/05/31 00:49:59;;;;;;;9.25;4.22;;;;;;;16.91;57.80;99834.94;5045760;28;20080;-50
2022/05/31 00:52:43;;;;;;;13.02;4.90;;;;;;;16.92;57.48;99849.75;5034969;28;20036;-51
2022/05/31 00:55:16;;;;;;;12.82;3.88;;;;;;;16.91;57.79;99837.56;5029864;28;20041;-50
2022/05/31 00:57:48;;;;;;;13.52;4.60;;;;;;;16.90;57.54;99840.28;5033881;28;20075;-51
2022/05/31 01:00:15;;;;;;;11.73;4.25;;;;;;;16.89;57.41;99842.06;5023065;28;20041;-52
2022/05/31 01:02:43;;;;;;;10.85;3.80;;;;;;;16.89;57.08;99838.59;5021871;28;20459;-51
2022/05/31 01:05:10;;;;;;;9.15;4.07;;;;;;;16.89;57.26;99844.69;5034888;28;20048;-53
2022/05/31 01:07:36;;;;;;;14.73;3.67;;;;;;;16.82;57.04;99829.38;5028463;28;20481;-52
2022/05/31 01:10:08;;;;;;;11.20;4.03;;;;;;;16.89;57.38;99842.06;5035098;28;20135;-51
2022/05/31 01:12:52;;;;;;;9.15;3.78;;;;;;;16.91;57.38;99844.59;5034098;28;20041;-52
2022/05/31 01:16:07;;;;;;;7.97;3.33;;;;;;;16.89;57.32;99843.84;5028497;28;20042;-50
2022/05/31 01:19:05;;;;;;;8.13;3.75;;;;;;;16.85;57.20;99848.41;5006628;28;20046;-49
2022/05/31 01:21:54;;;;;;;11.43;4.00;;;;;;;16.85;57.29;99845.78;5034923;28;20148;-50
2022/05/31 01:24:28;;;;;;;11.27;3.85;;;;;;;16.84;57.67;99856.41;5028091;28;20033;-48
2022/05/31 01:27:00;;;;;;;10.63;4.68;;;;;;;16.79;58.13;99856.66;5044206;28;20416;-49
2022/05/31 01:29:38;;;;;;;12.85;4.78;;;;;;;16.78;58.36;99856.75;5016074;28;20041;-49
2022/05/31 01:32:08;;;;;;;8.75;3.90;;;;;;;16.78;58.11;99852.34;5032609;28;20045;-48
2022/05/31 01:34:36;;;;;;;9.93;3.92;;;;;;;16.77;58.10;99850.66;5035924;28;20045;-51
2022/05/31 01:37:02;;;;;;;7.13;3.97;;;;;;;16.74;58.43;99848.22;5049362;28;20401;-50
2022/05/31 01:39:34;;;;;;;7.80;3.55;;;;;;;16.73;58.80;99846.50;5024867;28;20521;-49
2022/05/31 01:42:01;;;;;;;8.00;3.63;;;;;;;16.74;58.99;99842.97;5025873;28;20126;-52
2022/05/31 01:44:30;;;;;;;7.95;3.38;;;;;;;16.73;59.03;99849.13;5017083;28;20042;-52
2022/05/31 01:46:57;;;;;;;8.43;3.13;;;;;;;16.66;59.37;99839.06;5018921;28;20049;-49
2022/05/31 01:49:24;;;;;;;8.52;3.17;;;;;;;16.69;59.16;99849.41;5042980;28;20073;-49
2022/05/31 01:51:50;;;;;;;6.07;3.20;;;;;;;16.68;59.50;99848.53;5044306;28;20075;-49
2022/05/31 01:54:18;;;;;;;11.25;3.25;;;;;;;16.65;59.72;99845.22;5019119;28;20077;-49
2022/05/31 01:56:48;;;;;;;6.65;3.25;;;;;;;16.59;60.13;99853.47;5026623;28;20041;-49
2022/05/31 01:59:14;;;;;;;5.22;2.95;;;;;;;16.54;60.86;99851.91;5016277;28;20045;-49
2022/05/31 02:01:40;;;;;;;6.30;3.30;;;;;;;16.51;61.29;99852.09;5015707;28;20128;-49
2022/05/31 02:04:07;;;;;;;7.03;2.90;;;;;;;16.41;61.35;99839.56;5046537;28;20437;-50
2022/05/31 02:06:35;;;;;;;6.70;3.30;;;;;;;16.34;62.06;99841.66;5060628;28;20060;-52
2022/05/31 02:09:03;;;;;;;5.75;3.30;;;;;;;16.38;62.09;99855.50;5044967;28;20079;-52
2022/05/31 02:11:29;;;;;;;7.80;3.53;;;;;;;16.38;62.03;99853.69;5033032;28;20103;-51
2022/05/31 02:14:04;;;;;;;5.05;3.22;;;;;;;16.36;62.69;99850.31;5023519;28;20087;-48
2022/05/31 02:16:31;;;;;;;7.35;4.03;;;;;;;16.31;63.12;99854.97;5037720;28;20184;-53
2022/05/31 02:19:36;;;;;;;8.38;3.78;;;;;;;16.27;63.76;99863.94;5042380;28;20053;-50
2022/05/31 02:22:30;;;;;;;6.32;3.22;;;;;;;16.21;64.74;99866.91;5030044;28;20052;-52
2022/05/31 02:24:56;;;;;;;6.68;3.60;;;;;;;16.09;65.65;99871.03;5048575;28;20052;-51
2022/05/31 02:27:22;;;;;;;7.15;3.92;;;;;;;15.97;67.47;99865.59;5046747;28;20045;-50
2022/05/31 02:29:48;;;;;;;8.63;4.07;;;;;;;15.88;68.47;99873.94;5024520;28;20052;-49
2022/05/31 02:32:15;;;;;;;7.43;4.00;;;;;;;15.82;68.89;99877.75;5032703;28;20037;-49
2022/05/31 02:34:49;;;;;;;8.25;3.33;;;;;;;15.72;70.03;99873.91;5033087;28;20115;-49
2022/05/31 02:37:19;;;;;;;5.78;4.05;;;;;;;15.62;70.21;99870.06;5018109;28;20429;-51
2022/05/31 02:39:46;;;;;;;5.88;3.22;;;;;;;15.56;71.36;99876.47;5050851;28;20053;-50
2022/05/31 02:42:13;;;;;;;5.50;3.45;;;;;;;15.49;72.15;99875.06;5045468;28;20405;-49
2022/05/31 02:44:40;;;;;;;8.90;3.75;;;;;;;15.41;72.39;99877.22;5049273;28;20127;-52
2022/05/31 02:47:10;;;;;;;6.55;3.78;;;;;;;15.38;73.09;99884.41;5032571;28;20041;-47
2022/05/31 02:49:37;;;;;;;6.43;3.40;;;;;;;15.36;73.95;99883.63;5034802;28;20099;-52
2022/05/31 02:52:04;;;;;;;11.52;4.40;;;;;;;15.32;74.26;99889.97;5032174;28;20029;-50
2022/05/31 02:54:29;;;;;;;6.88;4.28;;;;;;;15.31;74.54;99883.88;5046096;28;20049;-50
2022/05/31 02:57:14;;;;;;;4.55;3.33;;;;;;;15.31;75.59;99893.50;5036815;28;20044;-53
2022/05/31 02:59:51;;;;;;;10.35;3.67;;;;;;;15.24;75.58;99901.66;5040649;28;20191;-52
2022/05/31 03:02:35;;;;;;;8.60;3.70;;;;;;;15.18;76.32;99894.09;5037188;28;20048;-51
2022/05/31 03:05:20;;;;;;;5.35;3.55;;;;;;;15.15;76.95;99902.13;5019843;28;20410;-52
2022/05/31 03:08:05;;;;;;;6.18;3.85;;;;;;;15.08;77.78;99898.09;5034461;28;20052;-51
2022/05/31 03:10:44;;;;;;;10.02;3.38;;;;;;;15.06;78.03;99897.34;5040125;28;20048;-51
2022/05/31 03:13:12;;;;;;;9.88;4.00;;;;;;;15.08;77.72;99890.25;5029211;28;20131;-51
2022/05/31 03:15:38;;;;;;;5.20;3.35;;;;;;;15.08;78.72;99895.47;5014249;28;20428;-54
2022/05/31 03:18:14;;;;;;;7.45;4.07;;;;;;;15.10;79.16;99900.66;5034433;28;20049;-54
2022/05/31 03:20:43;;;;;;;8.32;4.10;;;;;;;15.09;79.69;99898.94;5042088;28;20111;-53
2022/05/31 03:23:29;;;;;;;6.90;3.75;;;;;;;15.08;80.57;99900.72;5040159;28;20045;-47
2022/05/31 03:25:55;;;;;;;12.00;4.78;;;;;;;15.02;80.65;99897.56;5015215;28;20131;-51
2022/05/31 03:28:22;;;;;;;8.13;4.20;;;;;;;15.09;81.61;99907.66;5048612;28;20048;-51
2022/05/31 03:30:48;;;;;;;8.68;3.95;;;;;;;14.96;82.15;99892.63;5048662;28;20204;-52
2022/05/31 03:33:15;;;;;;;9.05;4.32;;;;;;;15.05;82.71;99915.75;5036099;28;20041;-52
2022/05/31 03:35:41;;;;;;;7.72;3.90;;;;;;;14.96;82.86;99910.97;5031041;28;20087;-53
2022/05/31 03:38:24;;;;;;;6.50;4.38;;;;;;;15.02;83.45;99921.97;5030407;28;20402;-52
2022/05/31 03:40:59;;;;;;;6.43;4.53;;;;;;;15.05;83.97;99921.84;5031147;28;20041;-51
2022/05/31 03:43:33;;;;;;;8.07;4.82;;;;;;;15.08;84.10;99912.97;5029364;28;20037;-50
2022/05/31 03:46:17;;;;;;;7.65;3.90;;;;;;;15.04;84.41;99917.50;5051245;28;20105;-49
2022/05/31 03:48:59;;;;;;;8.32;4.95;;;;;;;15.02;84.66;99918.53;5037912;28;20091;-50
2022/05/31 03:51:28;;;;;;;7.55;4.40;;;;;;;15.03;85.64;99925.44;5020746;28;20043;-49
2022/05/31 03:53:58;;;;;;;6.35;4.95;;;;;;;15.09;86.25;99925.13;5046066;28;20508;-48
2022/05/31 03:56:43;;;;;;;6.10;4.18;;;;;;;15.09;87.09;99917.28;5012263;28;20098;-49
2022/05/31 03:59:10;;;;;;;5.05;3.38;;;;;;;15.03;87.12;99910.56;5035277;28;20038;-49
2022/05/31 04:01:36;;;;;;;5.88;3.85;;;;;;;15.16;86.69;99923.94;5060308;28;20051;-51
2022/05/31 04:04:03;;;;;;;3.92;3.53;;;;;;;15.18;87.49;99920.28;5028849;28;20045;-49
2022/05/31 04:06:31;;;;;;;5.57;3.50;;;;;;;15.25;86.53;99928.69;5017600;28;20065;-51
2022/05/31 04:08:58;;;;;;;6.43;3.38;;;;;;;15.30;85.80;99928.47;5029709;28;20045;-53
2022/05/31 04:11:24;;;;;;;5.45;3.10;;;;;;;15.30;85.48;99924.09;5030724;28;20171;-49
2022/05/31 04:13:51;;;;;;;10.65;3.75;;;;;;;15.34;85.24;99922.16;5031956;28;20034;-51
2022/05/31 04:16:41;;;;;;;5.35;2.80;;;;;;;15.34;84.78;99927.38;5029632;28;20591;-54
2022/05/31 04:19:07;;;;;;;7.25;3.47;;;;;;;15.36;84.05;99926.41;5039074;28;20049;-53
2022/05/31 04:21:34;;;;;;;5.15;3.60;;;;;;;15.48;84.34;99924.94;5029709;28;20052;-51
2022/05/31 04:24:08;;;;;;;6.43;3.55;;;;;;;15.61;84.39;99926.03;5041463;28;20044;-52
2022/05/31 04:26:47;;;;;;;7.90;3.20;;;;;;;15.70;83.44;99916.88;5047690;28;20116;-52
2022/05/31 04:29:32;;;;;;;8.15;2.97;;;;;;;15.66;82.99;99910.91;5019339;28;20464;-47
2022/05/31 04:32:24;;;;;;;9.63;3.80;;;;;;;15.75;82.34;99915.72;5031817;28;20038;-49
2022/05/31 04:35:07;;;;;;;5.65;3.28;;;;;;;15.70;82.12;99915.09;5037515;28;20056;-52
2022/05/31 04:37:33;;;;;;;6.40;3.50;;;;;;;15.72;82.69;99915.00;5030534;28;20051;-51
2022/05/31 04:40:10;;;;;;;6.90;3.50;;;;;;;15.72;82.31;99921.09;5022119;28;20044;-52
2022/05/31 04:42:42;;;;;;;4.90;3.60;;;;;;;15.71;81.67;99915.91;5032663;28;20509;-48
2022/05/31 04:45:15;;;;;;;5.22;3.95;;;;;;;15.72;80.91;99921.09;4998874;28;20069;-49
2022/05/31 04:47:43;;;;;;;8.50;3.85;;;;;;;15.75;81.24;99922.72;5047699;28;20036;-53
2022/05/31 04:50:09;;;;;;;5.88;3.92;;;;;;;15.76;81.17;99914.75;5036767;28;20041;-54
2022/05/31 04:52:36;;;;;;;7.10;4.68;;;;;;;15.76;81.21;99916.53;5028536;28;20437;-51
2022/05/31 04:55:04;;;;;;;10.05;4.22;;;;;;;15.79;81.97;99916.38;5044747;28;20037;-51
2022/05/31 04:57:47;;;;;;;8.07;4.50;;;;;;;15.81;82.44;99912.75;5033300;28;20041;-52
2022/05/31 05:00:14;;;;;;;7.35;4.03;;;;;;;15.77;82.61;99913.84;5048383;28;20051;-54
2022/05/31 05:03:06;;;;;;;8.10;4.72;;;;;;;15.69;83.19;99910.78;5026872;28;20041;-53
2022/05/31 05:05:33;;;;;;;7.88;3.95;;;;;;;15.67;83.89;99918.72;5032700;28;20040;-55
2022/05/31 05:08:09;;;;;;;5.45;3.78;;;;;;;15.52;83.46;99909.00;5047521;28;20048;-53
2022/05/31 05:10:37;;;;;;;10.85;4.47;;;;;;;15.50;83.47;99916.06;5025147;28;20519;-54
2022/05/31 05:13:43;;;;;;;7.22;3.40;;;;;;;15.45;83.85;99915.44;5027694;28;20132;-55
2022/05/31 05:16:16;;;;;;;6.47;3.65;;;;;;;15.28;84.01;99902.38;5027861;28;20053;-52
2022/05/31 05:18:47;;;;;;;7.03;3.70;;;;;;;15.34;84.34;99912.50;5027695;28;20045;-52
2022/05/31 05:21:14;;;;;;;7.63;4.00;;;;;;;15.29;84.25;99914.53;5027502;28;20049;-55
2022/05/31 05:23:41;;;;;;;11.02;4.93;;;;;;;15.23;85.33;99913.06;4994877;28;20575;-55
2022/05/31 05:26:12;;;;;;;5.13;3.38;;;;;;;15.11;86.83;99895.34;4999929;28;20069;-54
2022/05/31 05:31:41;;;;;;;12.25;4.35;;;;;;;15.18;86.99;99903.72;5013798;28;20084;-50
2022/05/31 05:34:25;;;;;;;6.70;4.07;;;;;;;15.15;87.85;99898.66;5017344;28;20080;-53
2022/05/31 05:36:56;;;;;;;5.10;3.30;;;;;;;15.16;88.06;99901.19;5030896;28;20160;-49
2022/05/31 05:39:23;;;;;;;6.50;4.55;;;;;;;15.02;87.75;99866.16;5030849;28;20041;-51
2022/05/31 05:42:15;;;;;;;9.45;4.47;;;;;;;15.26;88.47;99902.44;5017209;28;20050;-53
2022/05/31 05:45:07;;;;;;;11.25;5.75;;;;;;;15.23;88.86;99876.38;5011043;28;20549;-52
2022/05/31 05:47:32;;;;;;;10.30;6.17;;;;;;;15.41;89.56;99900.81;5023056;28;20494;-50
2022/05/31 05:49:58;;;;;;;9.40;6.65;;;;;;;15.50;89.74;99896.88;5023115;28;20065;-54
2022/05/31 05:52:47;;;;;;;21.90;15.95;;;;;;;15.57;89.44;99895.66;5035772;28;20128;-54
2022/05/31 05:55:48;;;;;;;13.30;9.20;;;;;;;15.66;88.67;99871.59;4971871;28;20042;-50
2022/05/31 05:58:32;;;;;;;11.13;7.07;;;;;;;15.87;89.13;99886.22;5038942;28;20065;-49
2022/05/31 06:01:31;;;;;;;12.35;7.35;;;;;;;16.00;88.86;99878.56;5027614;28;20044;-52
2022/05/31 06:04:12;;;;;;;12.38;7.40;;;;;;;16.13;89.57;99886.59;5042545;28;20124;-54
2022/05/31 06:06:41;;;;;;;13.57;7.60;;;;;;;16.21;89.43;99880.03;5032119;28;20065;-52
2022/05/31 06:09:14;;;;;;;10.52;7.22;;;;;;;16.32;88.42;99874.19;5060658;28;20068;-55
2022/05/31 06:11:53;;;;;;;13.20;7.63;;;;;;;16.43;88.49;99867.41;4998272;28;20063;-52
2022/05/31 06:14:31;;;;;;;10.73;6.53;;;;;;;16.59;88.34;99871.84;5064437;28;20111;-51
2022/05/31 06:17:00;;;;;;;15.43;7.68;;;;;;;16.70;87.45;99866.81;5011863;28;20544;-52
2022/05/31 06:19:35;;;;;;;15.70;8.63;;;;;;;16.74;87.06;99853.47;5022427;28;20074;-52
2022/05/31 06:22:03;;;;;;;11.95;6.68;;;;;;;16.95;85.35;99869.75;5031641;28;20041;-50
2022/05/31 06:24:49;;;;;;;9.38;6.07;;;;;;;16.99;83.50;99873.91;5037776;28;20579;-55
2022/05/31 06:27:33;;;;;;;9.93;6.18;;;;;;;17.06;82.65;99867.34;5033936;28;20077;-50
2022/05/31 06:29:59;;;;;;;10.07;5.55;;;;;;;17.08;82.27;99878.63;5032595;28;20037;-50
2022/05/31 06:32:25;;;;;;;10.50;6.75;;;;;;;17.06;81.52;99866.53;5030670;28;20550;-48
2022/05/31 06:34:53;;;;;;;9.15;5.32;;;;;;;16.99;80.50;99876.53;5014693;28;20575;-49
2022/05/31 06:37:30;;;;;;;8.57;5.63;;;;;;;16.97;79.75;99867.88;4996320;28;20042;-49
2022/05/31 06:39:56;;;;;;;9.45;5.30;;;;;;;17.13;79.85;99880.97;5016211;28;20163;-49
2022/05/31 06:42:49;;;;;;;6.82;4.70;;;;;;;17.11;78.98;99881.09;5023437;28;20157;-48
2022/05/31 06:45:33;;;;;;;9.63;5.18;;;;;;;17.22;78.30;99881.28;5058929;28;20033;-49
2022/05/31 06:48:21;;;;;;;;;;;;;;;17.30;77.24;99884.31;5025053;28;20547;-47
2022/05/31 06:51:11;;;;;;;7.40;4.82;;;;;;;17.38;76.21;99875.16;5031056;28;20012;-53
2022/05/31 06:57:01;;;;;;;6.68;5.05;;;;;;;17.95;75.76;99878.72;5031674;28;20053;-53
2022/05/31 06:59:34;;;;;;;8.10;5.00;;;;;;;18.01;74.10;99860.75;5020074;28;20037;-53
2022/05/31 07:02:06;;;;;;;10.18;5.00;;;;;;;18.35;73.21;99877.06;5028981;28;20041;-53
2022/05/31 07:04:34;;;;;;;6.68;4.78;;;;;;;18.70;70.71;99862.50;5028769;28;20074;-54
2022/05/31 07:07:01;;;;;;;9.10;5.70;;;;;;;19.13;69.70;99875.50;5030364;28;20061;-49
2022/05/31 07:09:46;;;;;;;8.90;4.60;;;;;;;19.49;67.94;99877.50;5027502;28;20044;-56
2022/05/31 07:12:30;;;;;;;9.43;4.18;;;;;;;19.83;64.90;99868.97;5031099;28;20104;-54
2022/05/31 07:15:15;;;;;;;8.02;4.57;;;;;;;20.12;63.93;99870.41;5032056;28;20456;-54
2022/05/31 07:18:10;;;;;;;7.40;4.25;;;;;;;20.15;62.72;99862.25;5010222;28;20053;-51
2022/05/31 07:20:35;;;;;;;11.38;5.40;;;;;;;20.08;63.45;99853.09;5030875;28;20037;-50
2022/05/31 07:23:01;;;;;;;7.88;4.38;;;;;;;20.18;62.71;99867.34;5031070;28;20068;-53
2022/05/31 07:25:31;;;;;;;7.68;4.40;;;;;;;20.18;62.35;99866.50;4998390;28;20072;-53
2022/05/31 07:28:04;;;;;;;9.02;4.10;;;;;;;20.24;61.93;99845.78;5025832;28;20055;-51
2022/05/31 07:30:30;;;;;;;7.50;4.45;;;;;;;20.50;61.60;99865.06;5029810;28;20509;-55
2022/05/31 07:32:57;;;;;;;7.40;4.25;;;;;;;20.88;59.90;99853.50;5029850;28;20056;-53
2022/05/31 07:35:23;;;;;;;4.88;3.53;;;;;;;21.22;57.71;99865.06;5030484;28;20037;-53
2022/05/31 07:37:50;;;;;;;6.50;4.38;;;;;;;21.68;56.85;99865.03;5013021;28;20049;-50
2022/05/31 07:40:19;;;;;;;7.55;4.60;;;;;;;22.07;55.65;99861.97;5014641;28;20059;-53
2022/05/31 07:42:45;;;;;;;9.10;4.70;;;;;;;22.32;55.94;99864.34;5013389;28;20560;-52
2022/05/31 07:45:12;;;;;;;7.32;3.92;;;;;;;22.52;53.77;99853.94;5014241;28;20063;-49
2022/05/31 07:47:38;;;;;;;7.97;4.75;;;;;;;22.96;52.89;99861.81;5062459;28;20124;-49
2022/05/31 07:50:04;;;;;;;6.72;4.35;;;;;;;23.56;51.03;99868.25;5027797;28;20049;-51
2022/05/31 07:52:36;;;;;;;5.47;4.30;;;;;;;23.82;49.67;99847.44;5030616;28;20060;-51
2022/05/31 07:55:20;;;;;;;8.23;4.70;;;;;;;24.14;49.27;99858.75;5028172;28;20465;-54
2022/05/31 08:01:29;;;;;;;7.57;5.00;;;;;;;24.81;48.37;99864.25;5025489;28;19929;-51
2022/05/31 08:04:04;;;;;;;6.20;4.85;;;;;;;24.76;46.54;99853.19;5019308;28;20356;-51
2022/05/31 08:06:31;;;;;;;8.07;4.32;;;;;;;24.49;47.24;99855.69;5011665;28;20133;-51
2022/05/31 08:08:57;;;;;;;10.07;4.45;;;;;;;24.19;47.80;99864.53;5018526;28;20124;-50
2022/05/31 08:11:43;;;;;;;7.38;4.40;;;;;;;23.72;48.29;99863.31;5025115;28;20064;-54
2022/05/31 08:14:09;;;;;;;10.57;5.03;;;;;;;23.56;48.84;99870.91;5012151;28;20468;-52
2022/05/31 08:16:34;;;;;;;8.45;4.57;;;;;;;23.38;48.74;99865.34;5028514;28;20084;-50
2022/05/31 08:19:01;;;;;;;7.75;5.20;;;;;;;23.33;48.81;99869.34;5028146;28;20517;-52
2022/05/31 08:21:29;;;;;;;8.82;5.60;;;;;;;23.15;49.70;99869.06;5011665;28;20042;-51
2022/05/31 08:23:57;;;;;;;8.38;5.38;;;;;;;23.28;50.00;99875.03;4994745;28;20046;-54
2022/05/31 08:26:23;;;;;;;14.55;5.60;;;;;;;23.14;50.02;99873.53;5008624;28;20038;-55
2022/05/31 08:28:49;;;;;;;7.32;5.05;;;;;;;22.79;50.42;99865.84;5009860;28;20049;-50
2022/05/31 08:31:24;;;;;;;8.20;4.90;;;;;;;22.43;50.73;99867.94;5027882;28;20505;-53
2022/05/31 08:33:50;;;;;;;10.80;6.18;;;;;;;22.00;51.57;99867.84;5012341;28;20095;-53
2022/05/31 08:36:15;;;;;;;8.75;4.95;;;;;;;21.83;52.18;99858.56;5024844;28;20065;-53
2022/05/31 08:38:42;;;;;;;8.20;4.85;;;;;;;21.51;52.81;99872.47;5030624;28;20081;-56
2022/05/31 08:41:24;;;;;;;7.38;5.00;;;;;;;21.12;53.68;99868.38;5013834;28;20046;-55
2022/05/31 08:44:05;;;;;;;8.93;4.97;;;;;;;20.73;54.59;99864.22;5024197;28;20033;-57
2022/05/31 08:46:43;;;;;;;11.98;5.50;;;;;;;20.63;55.67;99862.38;5013020;28;20045;-53
2022/05/31 08:49:18;;;;;;;8.13;5.10;;;;;;;20.49;56.17;99862.53;5035469;28;20041;-52
2022/05/31 08:51:53;;;;;;;9.43;5.07;;;;;;;20.22;57.44;99866.16;5026050;28;20037;-50
2022/05/31 08:57:46;;;;;;;7.40;5.28;;;;;;;20.04;59.25;99862.19;5028770;28;20184;-49
2022/05/31 09:00:23;;;;;;;10.95;6.00;;;;;;;20.04;59.94;99864.84;5026931;28;20159;-52
2022/05/31 09:03:26;;;;;;;11.73;5.65;;;;;;;19.99;60.69;99868.75;5029531;28;20078;-51
2022/05/31 09:06:07;;;;;;;9.73;6.20;;;;;;;20.02;61.08;99872.00;5028998;28;20121;-50
2022/05/31 09:08:33;;;;;;;11.32;7.40;;;;;;;20.02;61.00;99869.38;5044707;28;20036;-55
2022/05/31 09:11:01;;;;;;;10.25;5.20;;;;;;;20.20;61.05;99867.25;5036124;28;20060;-52
2022/05/31 09:14:01;;;;;;;14.18;5.45;;;;;;;20.43;60.81;99865.59;5032329;28;20045;-56
2022/05/31 09:16:39;;;;;;;9.80;5.90;;;;;;;20.66;60.79;99867.44;5032614;28;20044;-55
2022/05/31 09:19:08;;;;;;;13.50;6.80;;;;;;;20.73;61.15;99866.00;4999586;28;20393;-53
2022/05/31 09:21:56;;;;;;;8.40;5.90;;;;;;;20.89;61.50;99868.38;5032546;28;20045;-54
2022/05/31 09:24:22;;;;;;;9.25;5.88;;;;;;;21.25;61.24;99872.78;5032545;28;20049;-56
2022/05/31 09:27:35;;;;;;;10.35;5.80;;;;;;;21.70;60.39;99871.06;5016141;28;20059;-54
2022/05/31 09:30:08;;;;;;;9.88;5.93;;;;;;;21.78;60.18;99866.84;5033791;28;20041;-58
2022/05/31 09:32:40;;;;;;;11.57;6.65;;;;;;;21.82;59.86;99865.69;5033920;28;20140;-55
2022/05/31 09:35:17;;;;;;;11.70;6.18;;;;;;;21.83;60.04;99858.56;5033422;28;20467;-54
2022/05/31 09:37:58;;;;;;;11.77;5.28;;;;;;;21.82;59.71;99857.72;5015826;28;20398;-53
2022/05/31 09:40:37;;;;;;;11.98;5.78;;;;;;;21.78;60.11;99860.72;5015920;28;20037;-56
2022/05/31 09:43:26;;;;;;;7.53;5.22;;;;;;;21.78;60.17;99860.72;5032445;28;20049;-56
2022/05/31 09:46:03;;;;;;;13.02;5.10;;;;;;;21.82;59.71;99863.03;5040948;28;20048;-49
2022/05/31 09:48:29;;;;;;;9.68;5.40;;;;;;;21.70;59.79;99871.91;4999201;28;20412;-55
2022/05/31 09:50:59;;;;;;;6.63;5.10;;;;;;;21.49;59.91;99869.09;5032028;28;20528;-53
2022/05/31 09:59:52;;;;;;;7.28;4.90;;;;;;;20.97;60.92;99855.44;5021166;28;20061;-55
2022/05/31 10:02:36;;;;;;;9.55;5.20;;;;;;;20.77;61.74;99854.28;5031988;28;20675;-55
2022/05/31 10:05:20;;;;;;;7.75;5.18;;;;;;;20.67;61.65;99867.31;5031916;28;20053;-56
2022/05/31 10:07:47;;;;;;;8.20;5.00;;;;;;;20.56;61.56;99867.28;5032854;28;20521;-51
2022/05/31 10:10:23;;;;;;;7.00;4.63;;;;;;;20.53;61.69;99866.63;5031835;28;20123;-52
2022/05/31 10:12:51;;;;;;;7.93;5.32;;;;;;;20.32;62.28;99849.69;5030521;28;20413;-55
2022/05/31 10:15:50;;;;;;;5.57;4.35;;;;;;;20.27;63.25;99874.59;5032848;28;20522;-49
2022/05/31 10:18:31;;;;;;;7.07;5.05;;;;;;;20.13;63.66;99858.06;5014224;28;20061;-54
2022/05/31 10:20:58;;;;;;;7.05;4.50;;;;;;;20.08;63.44;99863.66;5031255;28;20069;-53
2022/05/31 10:23:32;;;;;;;9.60;5.00;;;;;;;19.77;63.80;99849.13;5030943;28;20053;-53
2022/05/31 10:26:31;;;;;;;7.32;4.40;;;;;;;19.79;63.61;99870.13;5059499;28;20053;-52
2022/05/31 10:29:29;;;;;;;5.50;3.88;;;;;;;19.75;63.19;99869.50;5031683;28;20502;-51
2022/05/31 10:32:28;;;;;;;11.07;3.30;;;;;;;19.73;62.72;99860.81;5033668;28;20139;-50
2022/05/31 10:35:13;;;;;;;5.45;4.30;;;;;;;19.65;62.97;99868.44;5029770;28;20037;-52
2022/05/31 10:37:55;;;;;;;6.32;4.28;;;;;;;19.57;63.96;99867.28;5031335;28;20033;-50
2022/05/31 10:40:23;;;;;;;6.43;3.75;;;;;;;19.40;64.66;99879.78;5030238;28;20410;-49
2022/05/31 10:42:51;;;;;;;8.68;4.18;;;;;;;19.32;64.95;99881.22;5014145;28;20091;-52
2022/05/31 10:45:24;;;;;;;7.25;3.65;;;;;;;19.24;65.12;99879.13;5032012;28;20049;-54
2022/05/31 10:47:56;;;;;;;5.38;3.67;;;;;;;19.11;64.66;99872.13;5030578;28;20140;-58
2022/05/31 10:50:33;;;;;;;4.47;3.33;;;;;;;19.17;64.53;99877.00;5046990;28;20041;-54
2022/05/31 10:53:34;;;;;;;5.95;3.80;;;;;;;19.17;65.44;99887.53;5030166;28;20425;-53
2022/05/31 10:56:24;;;;;;;5.55;3.67;;;;;;;19.17;65.55;99883.09;5028402;28;20049;-56
2022/05/31 10:58:58;;;;;;;10.00;4.40;;;;;;;19.12;66.04;99879.94;5029547;28;20037;-54
2022/05/31 11:01:50;;;;;;;7.28;3.83;;;;;;;19.03;66.98;99872.66;5030797;28;20037;-54
2022/05/31 11:04:27;;;;;;;7.80;4.20;;;;;;;18.88;67.91;99874.50;5007399;28;20505;-53
2022/05/31 11:07:27;;;;;;;9.38;4.32;;;;;;;18.76;68.37;99875.28;5028584;28;20061;-51
2022/05/31 11:12:42;;;;;;;7.03;3.80;;;;;;;18.59;69.21;99878.16;5029912;28;20508;-52
2022/05/31 11:15:19;;;;;;;13.02;4.57;;;;;;;18.56;69.63;99878.38;5029994;28;20088;-52
2022/05/31 11:18:10;;;;;;;28.17;8.95;;;;;;;18.52;69.96;99867.16;5029335;28;20080;-50
2022/05/31 11:20:52;;;;;;;14.75;6.47;;;;;;;18.68;70.13;99876.75;5029596;28;20516;-53
2022/05/31 11:23:45;;;;;;;5.65;4.30;;;;;;;18.60;69.79;99851.75;5027863;28;20124;-54
2022/05/31 11:26:49;;;;;;;13.98;5.80;;;;;;;18.83;69.82;99876.59;5029851;28;20076;-52
2022/05/31 11:29:45;;;;;;;118.78;15.63;;;;;;;18.92;69.86;99875.97;5022271;28;20033;-53
2022/05/31 11:32:49;;;;;;;17.45;6.13;;;;;;;18.92;70.16;99883.03;5026591;28;20513;-53
2022/05/31 11:35:27;;;;;;;51.65;7.40;;;;;;;18.89;70.83;99885.88;5022819;28;20037;-55
2022/05/31 11:38:01;;;;;;;8.88;5.63;;;;;;;18.84;71.01;99875.63;5028235;28;20909;-54
2022/05/31 11:40:46;;;;;;;12.00;5.50;;;;;;;18.76;71.70;99877.94;5026863;28;20478;-52
2022/05/31 11:43:21;;;;;;;7.38;4.72;;;;;;;18.72;72.07;99888.75;5029633;28;20033;-51
2022/05/31 11:46:14;;;;;;;8.40;5.28;;;;;;;18.73;72.61;99885.19;5030740;28;20120;-51
2022/05/31 11:48:53;;;;;;;8.18;4.65;;;;;;;18.72;72.71;99886.13;5013299;28;20521;-53
2022/05/31 11:51:34;;;;;;;9.15;5.25;;;;;;;18.65;73.56;99896.22;5029690;28;20488;-53
2022/05/31 11:54:27;;;;;;;7.57;5.47;;;;;;;18.55;75.13;99895.09;5026257;28;20095;-50
2022/05/31 11:57:29;;;;;;;10.88;6.30;;;;;;;18.47;76.91;99886.84;5027532;28;20091;-53
2022/05/31 12:00:08;;;;;;;8.95;6.35;;;;;;;18.26;77.45;99864.50;5017803;28;20069;-56
2022/05/31 12:02:51;;;;;;;13.68;6.63;;;;;;;18.33;78.69;99887.69;5036831;28;20052;-56
2022/05/31 12:05:23;;;;;;;13.27;6.80;;;;;;;18.24;79.92;99887.41;5032645;28;20064;-50
2022/05/31 12:08:02;;;;;;;13.18;6.95;;;;;;;18.14;80.84;99895.03;5032642;28;20067;-52
2022/05/31 12:10:31;;;;;;;12.25;6.25;;;;;;;17.99;81.36;99870.53;5029509;28;20037;-53
2022/05/31 12:13:04;;;;;;;12.18;7.07;;;;;;;18.09;81.87;99891.84;5027810;28;20418;-55
2022/05/31 12:15:33;;;;;;;9.88;6.80;;;;;;;17.99;82.50;99881.06;5027382;28;20351;-54
2022/05/31 12:18:08;;;;;;;14.48;8.02;;;;;;;18.07;83.11;99889.31;5011473;28;20076;-54
2022/05/31 12:20:49;;;;;;;14.05;6.90;;;;;;;18.08;83.91;99887.53;5008520;28;20058;-53
2022/05/31 12:23:23;;;;;;;12.50;6.70;;;;;;;18.01;84.28;99883.56;5012953;28;20053;-56
2022/05/31 12:25:56;;;;;;;16.00;7.43;;;;;;;18.08;84.49;99898.91;5027283;28;20032;-55
2022/05/31 12:28:31;;;;;;;12.80;7.13;;;;;;;18.11;84.91;99895.22;5030626;28;20528;-55
2022/05/31 12:31:06;;;;;;;16.63;7.13;;;;;;;18.14;85.09;99897.69;5030385;28;20080;-53
2022/05/31 12:36:04;;;;;;;19.30;7.63;;;;;;;18.07;86.24;99894.56;5014823;28;20401;-55